Time;durP1;ratioP1;P1;durP2;ratioP2;P2;SDS_P1;SDS_P2;PMS_P1;PMS_P2;Temp;Humidity;BMP_temperature;BMP_pressure;BME280_temperature;BME280_humidity;BME280_pressure;Samples;Min_cycle;Max_cycle;Signal;HPM_P1;HPM_P2
2024/04/08 00:00:31;;;;;;;1.15;1.02;;;;;;;;;;5050841;28;20213;-51
2024/04/08 00:02:59;;;;;;;1.40;1.05;;;;;;;;;;5050664;28;20202;-51
2024/04/08 00:05:26;;;;;;;2.13;1.00;;;;;;;;;;5070269;28;20585;-50
2024/04/08 00:07:54;;;;;;;3.03;1.42;;;;;;;;;;5070485;28;20660;-50
2024/04/08 00:10:21;;;;;;;1.88;1.38;;;;;;;;;;5070698;28;20205;-50
2024/04/08 00:12:49;;;;;;;1.20;1.10;;;;;;;;;;5070628;28;20229;-51
2024/04/08 00:15:17;;;;;;;2.00;1.15;;;;;;;;;;5070833;28;20202;-50
2024/04/08 00:17:45;;;;;;;1.40;1.30;;;;;;;;;;5070390;28;20200;-50
2024/04/08 00:20:13;;;;;;;5.68;1.65;;;;;;;;;;5074537;28;20207;-50
2024/04/08 00:22:41;;;;;;;3.05;2.25;;;;;;;;;;5074517;28;20221;-48
2024/04/08 00:25:09;;;;;;;2.83;1.77;;;;;;;;;;5074339;28;20219;-48
2024/04/08 00:27:36;;;;;;;2.70;1.90;;;;;;;;;;5074221;28;20201;-49
2024/04/08 00:30:04;;;;;;;3.78;1.40;;;;;;;;;;5074266;28;20683;-49
2024/04/08 00:32:33;;;;;;;3.80;1.70;;;;;;;;;;5073860;28;20308;-49
2024/04/08 00:34:59;;;;;;;2.22;1.25;;;;;;;;;;5074003;28;20235;-49
2024/04/08 00:37:27;;;;;;;2.05;1.73;;;;;;;;;;5073861;28;20201;-51
2024/04/08 00:39:53;;;;;;;5.00;1.73;;;;;;;;;;5073838;28;20215;-50
2024/04/08 00:42:21;;;;;;;2.38;1.40;;;;;;;;;;5073453;28;20770;-49
2024/04/08 00:44:47;;;;;;;1.83;1.50;;;;;;;;;;5073633;28;20201;-52
2024/04/08 00:47:16;;;;;;;3.25;1.70;;;;;;;;;;5073882;28;20215;-48
2024/04/08 00:49:44;;;;;;;2.83;1.20;;;;;;;;;;5073806;28;20221;-50
2024/04/08 00:52:13;;;;;;;3.25;1.38;;;;;;;;;;5073862;28;20220;-49
2024/04/08 00:54:40;;;;;;;2.92;1.58;;;;;;;;;;5073587;28;20220;-49
2024/04/08 00:57:11;;;;;;;1.40;1.30;;;;;;;;;;5073973;28;20204;-52
2024/04/08 00:59:38;;;;;;;2.58;1.23;;;;;;;;;;5074022;28;20280;-52
2024/04/08 01:02:05;;;;;;;3.00;1.50;;;;;;;;;;5073493;28;20221;-51
2024/04/08 01:04:32;;;;;;;2.65;1.55;;;;;;;;;;5065270;28;20201;-49
2024/04/08 01:07:01;;;;;;;3.38;1.70;;;;;;;;;;5074082;28;20201;-53
2024/04/08 01:09:28;;;;;;;3.47;1.77;;;;;;;;;;5073445;28;20211;-51
2024/04/08 01:11:56;;;;;;;2.05;1.52;;;;;;;;;;5073221;28;20251;-48
2024/04/08 01:14:23;;;;;;;1.60;1.27;;;;;;;;;;5073924;28;20220;-48
2024/04/08 01:16:51;;;;;;;1.70;1.30;;;;;;;;;;5073396;28;20203;-49
2024/04/08 01:19:22;;;;;;;3.15;1.52;;;;;;;;;;5073381;28;20201;-49
2024/04/08 01:21:50;;;;;;;3.17;1.60;;;;;;;;;;5073327;28;20228;-50
2024/04/08 01:24:18;;;;;;;2.53;1.27;;;;;;;;;;5073527;28;20201;-52
2024/04/08 01:26:45;;;;;;;3.55;1.48;;;;;;;;;;5072944;28;20201;-47
2024/04/08 01:29:12;;;;;;;2.13;1.40;;;;;;;;;;5073209;28;20208;-50
2024/04/08 01:31:39;;;;;;;2.95;1.88;;;;;;;;;;5072450;28;20231;-49
2024/04/08 01:34:06;;;;;;;3.92;1.38;;;;;;;;;;5072944;28;20237;-53
2024/04/08 01:36:33;;;;;;;3.10;1.70;;;;;;;;;;5073135;28;20209;-48
2024/04/08 01:39:00;;;;;;;2.95;1.85;;;;;;;;;;5072728;28;20565;-48
2024/04/08 01:41:29;;;;;;;1.92;1.73;;;;;;;;;;5072260;28;20232;-48
2024/04/08 01:43:55;;;;;;;7.22;2.83;;;;;;;;;;5072673;28;20299;-51
2024/04/08 01:46:23;;;;;;;5.05;1.77;;;;;;;;;;5072748;28;20211;-51
2024/04/08 01:48:49;;;;;;;5.47;2.88;;;;;;;;;;5072754;28;20201;-49
2024/04/08 01:51:16;;;;;;;3.70;2.00;;;;;;;;;;5072330;28;20232;-49
2024/04/08 01:53:43;;;;;;;5.63;1.80;;;;;;;;;;5072762;28;20260;-48
2024/04/08 01:56:10;;;;;;;1.90;1.40;;;;;;;;;;5072633;28;20205;-49
2024/04/08 01:58:38;;;;;;;3.50;1.88;;;;;;;;;;5072457;28;20212;-50
2024/04/08 02:01:05;;;;;;;4.13;2.72;;;;;;;;;;5072116;28;20221;-51
2024/04/08 02:03:32;;;;;;;5.60;2.25;;;;;;;;;;5063911;28;20201;-50
2024/04/08 02:05:59;;;;;;;3.22;2.35;;;;;;;;;;5072241;28;20196;-51
2024/04/08 02:08:26;;;;;;;2.20;1.80;;;;;;;;;;5072268;28;20682;-53
2024/04/08 02:10:53;;;;;;;5.22;2.28;;;;;;;;;;5072243;28;20283;-48
2024/04/08 02:13:20;;;;;;;3.38;2.03;;;;;;;;;;5071965;28;20200;-52
2024/04/08 02:15:48;;;;;;;3.33;2.03;;;;;;;;;;5072111;28;20316;-51
2024/04/08 02:18:15;;;;;;;2.47;1.77;;;;;;;;;;5062595;28;20610;-52
2024/04/08 02:20:42;;;;;;;4.75;2.08;;;;;;;;;;5052249;28;20198;-51
2024/04/08 02:23:09;;;;;;;9.93;2.70;;;;;;;;;;5051985;28;20520;-51
2024/04/08 02:25:42;;;;;;;5.40;1.88;;;;;;;;;;5071849;28;20235;-53
2024/04/08 02:28:09;;;;;;;3.30;1.70;;;;;;;;;;5072015;28;20242;-48
2024/04/08 02:30:38;;;;;;;2.28;1.95;;;;;;;;;;5071622;28;20220;-48
2024/04/08 02:33:06;;;;;;;1.95;1.67;;;;;;;;;;5071624;28;20656;-49
2024/04/08 02:35:35;;;;;;;2.58;1.60;;;;;;;;;;5071423;28;20229;-49
2024/04/08 02:38:04;;;;;;;2.95;1.60;;;;;;;;;;5071624;28;20210;-52
2024/04/08 02:40:33;;;;;;;2.25;1.55;;;;;;;;;;5071761;28;20201;-49
2024/04/08 02:42:59;;;;;;;2.55;1.83;;;;;;;;;;5071512;28;20201;-51
2024/04/08 02:45:27;;;;;;;2.60;1.92;;;;;;;;;;5071543;28;20279;-52
2024/04/08 02:47:56;;;;;;;1.77;1.65;;;;;;;;;;5071586;28;20251;-53
2024/04/08 02:50:25;;;;;;;1.63;1.40;;;;;;;;;;5071571;28;20232;-49
2024/04/08 02:52:51;;;;;;;1.60;1.20;;;;;;;;;;5071679;28;20603;-48
2024/04/08 02:55:19;;;;;;;1.40;1.30;;;;;;;;;;5071536;28;20699;-51
2024/04/08 02:57:47;;;;;;;1.50;1.40;;;;;;;;;;5071681;28;20204;-49
2024/04/08 03:00:16;;;;;;;1.13;1.05;;;;;;;;;;5071925;28;20652;-47
2024/04/08 03:02:45;;;;;;;1.67;1.20;;;;;;;;;;5071435;28;20221;-47
2024/04/08 03:05:12;;;;;;;1.60;1.45;;;;;;;;;;5071562;28;20204;-47
2024/04/08 03:07:40;;;;;;;2.50;2.17;;;;;;;;;;5071280;28;20197;-52
2024/04/08 03:10:08;;;;;;;5.80;2.35;;;;;;;;;;5071503;28;20637;-47
2024/04/08 03:12:35;;;;;;;2.97;1.48;;;;;;;;;;5067431;28;20233;-47
2024/04/08 03:15:03;;;;;;;1.40;1.30;;;;;;;;;;5054397;28;20236;-50
2024/04/08 03:17:29;;;;;;;3.50;2.92;;;;;;;;;;5071086;28;20205;-51
2024/04/08 03:19:57;;;;;;;3.30;1.42;;;;;;;;;;5065084;28;20204;-48
2024/04/08 03:22:24;;;;;;;2.85;1.85;;;;;;;;;;5071233;28;20220;-47
2024/04/08 03:24:53;;;;;;;2.90;1.80;;;;;;;;;;5071041;28;20563;-49
2024/04/08 03:27:20;;;;;;;1.92;1.45;;;;;;;;;;5071122;28;20571;-49
2024/04/08 03:29:47;;;;;;;5.22;1.98;;;;;;;;;;5064796;28;20206;-49
2024/04/08 03:32:13;;;;;;;1.60;1.50;;;;;;;;;;5070976;28;20586;-47
2024/04/08 03:34:41;;;;;;;2.65;1.40;;;;;;;;;;5071141;28;20217;-47
2024/04/08 03:37:08;;;;;;;2.95;2.25;;;;;;;;;;5065049;28;20206;-47
2024/04/08 03:39:36;;;;;;;1.33;1.20;;;;;;;;;;5064937;28;20574;-50
2024/04/08 03:42:05;;;;;;;2.03;1.45;;;;;;;;;;5070941;28;20228;-49
2024/04/08 03:44:33;;;;;;;1.65;1.40;;;;;;;;;;5070635;28;20196;-48
2024/04/08 03:46:59;;;;;;;4.68;2.08;;;;;;;;;;5062615;28;20279;-48
2024/04/08 03:49:27;;;;;;;1.05;1.00;;;;;;;;;;5056579;28;20209;-50
2024/04/08 03:51:53;;;;;;;1.13;1.13;;;;;;;;;;5066710;28;20577;-50
2024/04/08 03:54:20;;;;;;;2.40;1.40;;;;;;;;;;5068830;28;20204;-49
2024/04/08 03:56:47;;;;;;;2.67;1.30;;;;;;;;;;5066505;28;20217;-48
2024/04/08 03:59:16;;;;;;;2.28;1.23;;;;;;;;;;5060672;28;20206;-47
2024/04/08 04:01:42;;;;;;;1.30;1.20;;;;;;;;;;5072103;28;20224;-49
2024/04/08 04:04:09;;;;;;;2.40;1.95;;;;;;;;;;5065401;28;20205;-48
2024/04/08 04:06:36;;;;;;;1.15;1.05;;;;;;;;;;5068790;28;20660;-48
2024/04/08 04:09:03;;;;;;;1.10;1.00;;;;;;;;;;5073996;28;20638;-47
2024/04/08 04:11:30;;;;;;;1.85;1.33;;;;;;;;;;5065905;28;20596;-47
2024/04/08 04:13:57;;;;;;;1.30;1.23;;;;;;;;;;5068766;28;20252;-49
2024/04/08 04:16:25;;;;;;;1.08;0.98;;;;;;;;;;5068770;28;20227;-47
2024/04/08 04:18:53;;;;;;;3.53;1.45;;;;;;;;;;5065127;28;20252;-50
2024/04/08 04:21:21;;;;;;;1.75;0.98;;;;;;;;;;5062341;28;20221;-48
2024/04/08 04:23:48;;;;;;;0.90;0.80;;;;;;;;;;5073856;28;20648;-53
2024/04/08 04:26:15;;;;;;;2.85;1.40;;;;;;;;;;5067623;28;20647;-48
2024/04/08 04:28:42;;;;;;;2.03;1.42;;;;;;;;;;5066595;28;20205;-48
2024/04/08 04:31:09;;;;;;;3.08;1.58;;;;;;;;;;5073918;28;20225;-50
2024/04/08 04:33:37;;;;;;;3.25;1.30;;;;;;;;;;5065048;28;20235;-48
2024/04/08 04:36:05;;;;;;;2.05;1.40;;;;;;;;;;5074303;28;20315;-51
2024/04/08 04:38:32;;;;;;;1.40;1.10;;;;;;;;;;5074316;28;20207;-51
2024/04/08 04:40:59;;;;;;;1.10;1.00;;;;;;;;;;5058660;28;20226;-49
2024/04/08 04:43:29;;;;;;;1.88;1.38;;;;;;;;;;5056878;28;20202;-47
2024/04/08 04:45:55;;;;;;;1.95;0.98;;;;;;;;;;5067691;28;20580;-47
2024/04/08 04:48:23;;;;;;;1.17;1.00;;;;;;;;;;5053673;28;20221;-47
2024/04/08 04:50:51;;;;;;;1.23;0.90;;;;;;;;;;5067814;28;20232;-47
2024/04/08 04:53:18;;;;;;;1.33;1.23;;;;;;;;;;5073340;28;20197;-48
2024/04/08 04:55:52;;;;;;;1.83;1.10;;;;;;;;;;5074138;28;20687;-48
2024/04/08 04:58:20;;;;;;;1.08;0.70;;;;;;;;;;5064121;28;20213;-50
2024/04/08 05:00:48;;;;;;;2.80;1.15;;;;;;;;;;5053828;28;20247;-49
2024/04/08 05:03:15;;;;;;;2.65;1.63;;;;;;;;;;5054687;28;20201;-48
2024/04/08 05:05:42;;;;;;;1.40;1.30;;;;;;;;;;5072361;28;20199;-46
2024/04/08 05:08:11;;;;;;;1.63;1.52;;;;;;;;;;5065084;28;20202;-49
2024/04/08 05:10:38;;;;;;;2.05;1.10;;;;;;;;;;5073689;28;20251;-49
2024/04/08 05:13:06;;;;;;;2.10;1.00;;;;;;;;;;5065318;28;20583;-49
2024/04/08 05:15:32;;;;;;;1.02;1.00;;;;;;;;;;5073455;28;20231;-47
2024/04/08 05:18:00;;;;;;;1.20;1.10;;;;;;;;;;5073178;28;20199;-51
2024/04/08 05:20:28;;;;;;;1.08;0.98;;;;;;;;;;5073102;28;20206;-48
2024/04/08 05:22:56;;;;;;;2.13;1.30;;;;;;;;;;5073427;28;20225;-49
2024/04/08 05:25:24;;;;;;;2.75;1.40;;;;;;;;;;5073325;28;20679;-50
2024/04/08 05:27:51;;;;;;;1.85;1.48;;;;;;;;;;5073370;28;20211;-49
2024/04/08 05:30:18;;;;;;;2.50;1.35;;;;;;;;;;5073627;28;20200;-48
2024/04/08 05:32:45;;;;;;;2.55;1.63;;;;;;;;;;5072994;28;20583;-49
2024/04/08 05:35:11;;;;;;;1.63;1.40;;;;;;;;;;5073067;28;20207;-52
2024/04/08 05:37:39;;;;;;;3.60;2.15;;;;;;;;;;5072918;28;20308;-48
2024/04/08 05:40:11;;;;;;;1.92;1.83;;;;;;;;;;5073004;28;20614;-51
2024/04/08 05:42:40;;;;;;;1.92;1.70;;;;;;;;;;5065789;28;20228;-47
2024/04/08 05:45:07;;;;;;;2.80;1.48;;;;;;;;;;5073194;28;20224;-51
2024/04/08 05:47:34;;;;;;;3.00;1.60;;;;;;;;;;5072781;28;20208;-50
2024/04/08 05:50:01;;;;;;;2.10;1.70;;;;;;;;;;5072339;28;20216;-48
2024/04/08 05:52:28;;;;;;;1.10;1.00;;;;;;;;;;5071973;28;20320;-47
2024/04/08 05:54:55;;;;;;;2.00;1.33;;;;;;;;;;5072136;28;20205;-51
2024/04/08 05:57:22;;;;;;;1.25;1.20;;;;;;;;;;5071951;28;20225;-52
2024/04/08 05:59:50;;;;;;;1.60;1.50;;;;;;;;;;5072301;28;20671;-51
2024/04/08 06:02:18;;;;;;;1.30;1.20;;;;;;;;;;5072169;28;20599;-54
2024/04/08 06:04:45;;;;;;;2.80;1.92;;;;;;;;;;5071916;28;20688;-53
2024/04/08 06:07:13;;;;;;;1.23;1.08;;;;;;;;;;5072152;28;20262;-52
2024/04/08 06:09:39;;;;;;;1.15;0.98;;;;;;;;;;5072369;28;20204;-49
2024/04/08 06:12:08;;;;;;;1.05;1.05;;;;;;;;;;5071542;28;20225;-51
2024/04/08 06:14:34;;;;;;;2.45;1.35;;;;;;;;;;5072007;28;20209;-49
2024/04/08 06:17:03;;;;;;;5.07;1.73;;;;;;;;;;5071299;28;20233;-51
2024/04/08 06:19:32;;;;;;;2.30;1.40;;;;;;;;;;5071944;28;20205;-48
2024/04/08 06:21:59;;;;;;;1.83;1.55;;;;;;;;;;5071803;28;20240;-53
2024/04/08 06:24:27;;;;;;;1.30;1.20;;;;;;;;;;5071636;28;20201;-49
2024/04/08 06:26:54;;;;;;;2.83;1.40;;;;;;;;;;5071801;28;20650;-48
2024/04/08 06:29:21;;;;;;;1.30;1.20;;;;;;;;;;5071815;28;20599;-50
2024/04/08 06:31:48;;;;;;;1.33;1.25;;;;;;;;;;5071441;28;20221;-48
2024/04/08 06:34:16;;;;;;;1.20;1.10;;;;;;;;;;5072052;28;20207;-49
2024/04/08 06:36:44;;;;;;;1.63;1.15;;;;;;;;;;5067020;28;20228;-51
2024/04/08 06:39:11;;;;;;;1.45;1.08;;;;;;;;;;5068864;28;20205;-52
2024/04/08 06:41:40;;;;;;;2.00;1.10;;;;;;;;;;5071482;28;20241;-53
2024/04/08 06:44:07;;;;;;;2.15;1.50;;;;;;;;;;5071902;28;20668;-54
2024/04/08 06:46:34;;;;;;;2.83;1.10;;;;;;;;;;5063390;28;20640;-53
2024/04/08 06:49:01;;;;;;;1.70;1.20;;;;;;;;;;5071518;28;20209;-53
2024/04/08 06:51:31;;;;;;;1.20;1.10;;;;;;;;;;5071347;28;20232;-54
2024/04/08 06:53:57;;;;;;;1.42;1.20;;;;;;;;;;5071945;28;20205;-51
2024/04/08 06:58:02;;;;;;;2.10;1.52;;;;;;;;;;5505729;25;20620;-52
2024/04/08 07:00:28;;;;;;;1.77;1.35;;;;;;;;;;5506296;25;20655;-49
2024/04/08 07:02:57;;;;;;;1.60;1.25;;;;;;;;;;5490622;25;20232;-50
2024/04/08 07:05:24;;;;;;;2.55;1.60;;;;;;;;;;5486484;25;20228;-50
2024/04/08 07:07:53;;;;;;;10.80;2.67;;;;;;;;;;5469378;26;20217;-49
2024/04/08 07:10:19;;;;;;;2.42;1.45;;;;;;;;;;5469513;26;20260;-52
2024/04/08 07:12:49;;;;;;;2.33;1.50;;;;;;;;;;5469034;26;20280;-49
2024/04/08 07:15:19;;;;;;;2.63;2.42;;;;;;;;;;5486249;26;20230;-50
2024/04/08 07:17:48;;;;;;;2.10;1.67;;;;;;;;;;5481023;25;20213;-53
2024/04/08 07:20:15;;;;;;;4.47;2.55;;;;;;;;;;5486203;26;20221;-49
2024/04/08 07:22:44;;;;;;;3.63;1.98;;;;;;;;;;5497008;25;20322;-50
2024/04/08 07:25:10;;;;;;;4.43;2.22;;;;;;;;;;5499290;26;20228;-53
2024/04/08 07:27:39;;;;;;;3.65;2.42;;;;;;;;;;5476483;26;20598;-52
2024/04/08 07:30:07;;;;;;;4.15;2.05;;;;;;;;;;5490918;25;20608;-52
2024/04/08 07:32:39;;;;;;;2.35;2.10;;;;;;;;;;5468554;26;20230;-53
2024/04/08 07:35:06;;;;;;;1.75;1.60;;;;;;;;;;5483744;26;20244;-52
2024/04/08 07:37:35;;;;;;;2.42;1.88;;;;;;;;;;5499028;25;20226;-49
2024/04/08 07:40:02;;;;;;;4.75;1.98;;;;;;;;;;5497863;26;20683;-52
2024/04/08 07:42:32;;;;;;;2.30;2.10;;;;;;;;;;5500011;25;20322;-48
2024/04/08 07:44:58;;;;;;;2.88;2.25;;;;;;;;;;5483617;26;20344;-51
2024/04/08 07:47:27;;;;;;;6.95;2.83;;;;;;;;;;5483677;26;20229;-48
2024/04/08 07:49:57;;;;;;;8.57;3.30;;;;;;;;;;5480772;26;20344;-48
2024/04/08 07:52:27;;;;;;;3.33;1.90;;;;;;;;;;5470530;25;20341;-51
2024/04/08 07:54:53;;;;;;;3.10;1.90;;;;;;;;;;5480096;26;20734;-48
2024/04/08 07:57:22;;;;;;;3.58;1.85;;;;;;;;;;5501821;25;20224;-49
2024/04/08 07:59:51;;;;;;;2.78;1.90;;;;;;;;;;5468580;26;20242;-49
2024/04/08 08:02:23;;;;;;;5.75;2.00;;;;;;;;;;5488407;26;21015;-48
2024/04/08 08:04:49;;;;;;;5.03;2.42;;;;;;;;;;5478105;26;20747;-48
2024/04/08 08:07:21;;;;;;;3.35;2.25;;;;;;;;;;5464867;26;20268;-49
2024/04/08 08:09:50;;;;;;;1.50;1.40;;;;;;;;;;5457064;26;20230;-50
2024/04/08 08:12:20;;;;;;;3.40;2.13;;;;;;;;;;5480915;26;20241;-50
2024/04/08 08:14:49;;;;;;;5.70;2.38;;;;;;;;;;5452679;26;20288;-51
2024/04/08 08:17:15;;;;;;;3.05;2.00;;;;;;;;;;5469518;26;20240;-48
2024/04/08 08:19:45;;;;;;;2.03;1.83;;;;;;;;;;5459066;26;20326;-52
2024/04/08 08:22:14;;;;;;;2.83;2.22;;;;;;;;;;5457638;26;20230;-51
2024/04/08 08:24:45;;;;;;;3.67;1.73;;;;;;;;;;5452521;26;20226;-49
2024/04/08 08:27:15;;;;;;;3.42;2.20;;;;;;;;;;5464351;26;20233;-49
2024/04/08 08:29:44;;;;;;;4.18;2.45;;;;;;;;;;5469313;26;20264;-52
2024/04/08 08:32:13;;;;;;;3.45;2.05;;;;;;;;;;5466973;26;20599;-52
2024/04/08 08:34:42;;;;;;;2.40;1.50;;;;;;;;;;5475190;26;20747;-54
2024/04/08 08:37:09;;;;;;;4.05;1.65;;;;;;;;;;5473303;26;20257;-49
2024/04/08 08:39:39;;;;;;;2.38;1.75;;;;;;;;;;5461013;26;20282;-51
2024/04/08 08:42:14;;;;;;;2.35;1.80;;;;;;;;;;5464289;26;20775;-49
2024/04/08 08:44:45;;;;;;;1.58;1.25;;;;;;;;;;5459637;26;20228;-51
2024/04/08 08:47:12;;;;;;;1.67;1.45;;;;;;;;;;5471544;26;20225;-49
2024/04/08 08:49:42;;;;;;;1.70;1.60;;;;;;;;;;5451399;26;20282;-51
2024/04/08 08:52:10;;;;;;;3.80;1.50;;;;;;;;;;5466162;26;20225;-50
2024/04/08 08:54:39;;;;;;;3.70;1.75;;;;;;;;;;5466298;26;20877;-49
2024/04/08 08:57:09;;;;;;;3.03;1.65;;;;;;;;;;5452151;26;20222;-53
2024/04/08 08:59:39;;;;;;;4.50;2.05;;;;;;;;;;5452153;26;20268;-53
2024/04/08 09:02:05;;;;;;;4.55;2.03;;;;;;;;;;5467156;26;20809;-54
2024/04/08 09:04:38;;;;;;;3.08;1.85;;;;;;;;;;5466915;26;20230;-52
2024/04/08 09:07:05;;;;;;;4.60;2.28;;;;;;;;;;5467070;26;20222;-50
2024/04/08 09:09:34;;;;;;;6.35;2.35;;;;;;;;;;5457793;26;20225;-53
2024/04/08 09:12:01;;;;;;;4.38;1.75;;;;;;;;;;5473281;26;20229;-50
2024/04/08 09:14:33;;;;;;;4.03;1.67;;;;;;;;;;5483151;26;20280;-52
2024/04/08 09:17:06;;;;;;;1.65;1.55;;;;;;;;;;5466967;26;20234;-52
2024/04/08 09:19:35;;;;;;;2.85;1.92;;;;;;;;;;5458271;26;20225;-50
2024/04/08 09:22:03;;;;;;;3.10;1.80;;;;;;;;;;5459470;26;20270;-50
2024/04/08 09:24:34;;;;;;;5.65;1.55;;;;;;;;;;5482151;26;21150;-50
2024/04/08 09:27:01;;;;;;;1.83;1.73;;;;;;;;;;5467049;26;20578;-52
2024/04/08 09:29:33;;;;;;;1.90;1.60;;;;;;;;;;5466959;26;20256;-50
2024/04/08 09:32:00;;;;;;;3.50;2.13;;;;;;;;;;5464527;26;20225;-54
2024/04/08 09:34:31;;;;;;;3.55;1.70;;;;;;;;;;5468068;26;20224;-49
2024/04/08 09:36:57;;;;;;;7.22;1.80;;;;;;;;;;5464344;26;20263;-51
2024/04/08 09:39:27;;;;;;;2.47;1.98;;;;;;;;;;5483934;26;20213;-50
2024/04/08 09:41:56;;;;;;;3.30;1.73;;;;;;;;;;5466570;26;20276;-49
2024/04/08 09:44:30;;;;;;;3.03;1.50;;;;;;;;;;5466285;26;20233;-52
2024/04/08 09:47:04;;;;;;;3.85;1.33;;;;;;;;;;5466728;26;20268;-52
2024/04/08 09:49:30;;;;;;;3.92;2.05;;;;;;;;;;5466559;26;20226;-52
2024/04/08 09:52:00;;;;;;;3.15;2.08;;;;;;;;;;5451467;26;20611;-50
2024/04/08 09:54:27;;;;;;;1.77;1.67;;;;;;;;;;5451375;26;20713;-49
2024/04/08 09:57:02;;;;;;;3.85;1.85;;;;;;;;;;5463000;26;20271;-49
2024/04/08 09:59:30;;;;;;;4.47;2.05;;;;;;;;;;5452182;26;20222;-50
2024/04/08 10:02:02;;;;;;;4.78;2.70;;;;;;;;;;5451172;26;20234;-52
2024/04/08 10:04:33;;;;;;;1.92;1.73;;;;;;;;;;5456446;26;20229;-53
2024/04/08 10:07:05;;;;;;;3.80;2.03;;;;;;;;;;5459687;26;20298;-52
2024/04/08 10:09:32;;;;;;;1.42;1.33;;;;;;;;;;5472523;26;21042;-51
2024/04/08 10:12:07;;;;;;;2.60;1.40;;;;;;;;;;5474777;26;20230;-53
2024/04/08 10:14:34;;;;;;;3.00;1.90;;;;;;;;;;5472615;26;20275;-49
2024/04/08 10:17:06;;;;;;;2.08;1.60;;;;;;;;;;5474191;26;20725;-53
2024/04/08 10:19:33;;;;;;;3.58;1.20;;;;;;;;;;5457201;26;20715;-53
2024/04/08 10:22:05;;;;;;;3.40;1.65;;;;;;;;;;5459283;26;20748;-57
2024/04/08 10:24:37;;;;;;;1.75;1.40;;;;;;;;;;5451212;26;20647;-53
2024/04/08 10:27:07;;;;;;;1.75;1.45;;;;;;;;;;5466027;26;20273;-50
2024/04/08 10:29:35;;;;;;;2.47;1.48;;;;;;;;;;5465640;26;20233;-50
2024/04/08 10:32:08;;;;;;;5.18;2.50;;;;;;;;;;5473066;26;20289;-51
2024/04/08 10:34:35;;;;;;;2.13;1.48;;;;;;;;;;5474335;26;20288;-54
2024/04/08 10:37:04;;;;;;;1.75;1.48;;;;;;;;;;5466779;26;20329;-50
2024/04/08 10:39:30;;;;;;;1.85;1.60;;;;;;;;;;5471816;26;20272;-53
2024/04/08 10:42:13;;;;;;;4.05;1.50;;;;;;;;;;5465742;26;20234;-53
2024/04/08 10:44:39;;;;;;;4.60;2.03;;;;;;;;;;5456666;26;20222;-51
2024/04/08 10:47:11;;;;;;;1.50;1.40;;;;;;;;;;5464963;26;20293;-52
2024/04/08 10:49:41;;;;;;;2.40;1.23;;;;;;;;;;5457118;26;20712;-53
2024/04/08 10:52:10;;;;;;;2.95;1.90;;;;;;;;;;5450340;26;20296;-52
2024/04/08 10:54:37;;;;;;;7.82;2.95;;;;;;;;;;5480300;26;20267;-53
2024/04/08 10:57:06;;;;;;;2.63;1.98;;;;;;;;;;5466605;26;20225;-52
2024/04/08 10:59:33;;;;;;;1.90;1.30;;;;;;;;;;5465379;26;20260;-54
2024/04/08 11:02:02;;;;;;;2.50;1.40;;;;;;;;;;5456414;26;20692;-54
2024/04/08 11:04:32;;;;;;;8.07;2.30;;;;;;;;;;5472825;26;20780;-55
2024/04/08 11:07:01;;;;;;;2.40;1.80;;;;;;;;;;5480393;26;20229;-54
2024/04/08 11:09:27;;;;;;;2.72;1.52;;;;;;;;;;5468962;26;20221;-53
2024/04/08 11:11:57;;;;;;;3.15;1.60;;;;;;;;;;5462693;26;20326;-51
2024/04/08 11:14:23;;;;;;;4.03;1.55;;;;;;;;;;5459774;26;20273;-53
2024/04/08 11:16:58;;;;;;;3.13;1.48;;;;;;;;;;5467252;26;20221;-51
2024/04/08 11:19:25;;;;;;;2.95;1.75;;;;;;;;;;5464736;26;20326;-50
2024/04/08 11:21:57;;;;;;;2.47;1.42;;;;;;;;;;5449676;26;20299;-50
2024/04/08 11:24:24;;;;;;;1.70;1.60;;;;;;;;;;5477721;26;20225;-55
2024/04/08 11:26:53;;;;;;;2.15;1.52;;;;;;;;;;5479673;26;20231;-52
2024/04/08 11:29:20;;;;;;;4.47;1.55;;;;;;;;;;5465888;26;20222;-49
2024/04/08 11:31:49;;;;;;;3.42;2.15;;;;;;;;;;5464893;26;20279;-54
2024/04/08 11:34:15;;;;;;;3.53;1.65;;;;;;;;;;5459826;26;20229;-51
2024/04/08 11:36:44;;;;;;;1.40;1.30;;;;;;;;;;5469290;26;20713;-50
2024/04/08 11:39:13;;;;;;;1.20;1.10;;;;;;;;;;5449756;26;20222;-54
2024/04/08 11:41:42;;;;;;;1.80;1.50;;;;;;;;;;5479387;26;20233;-53
2024/04/08 11:44:09;;;;;;;4.85;1.63;;;;;;;;;;5460682;26;20229;-52
2024/04/08 11:46:38;;;;;;;1.75;1.65;;;;;;;;;;5465366;26;20713;-52
2024/04/08 11:49:07;;;;;;;5.03;1.85;;;;;;;;;;5468263;26;20261;-49
2024/04/08 11:51:36;;;;;;;3.40;2.40;;;;;;;;;;5468120;26;20608;-52
2024/04/08 11:54:02;;;;;;;3.55;1.60;;;;;;;;;;5459557;26;20643;-52
2024/04/08 11:56:34;;;;;;;1.42;1.33;;;;;;;;;;5474979;26;20627;-52
2024/04/08 11:59:00;;;;;;;1.90;1.40;;;;;;;;;;5459746;26;20226;-51
2024/04/08 12:01:30;;;;;;;3.42;1.80;;;;;;;;;;5465837;26;20342;-50
2024/04/08 12:03:56;;;;;;;3.17;2.38;;;;;;;;;;5458455;26;20217;-50
2024/04/08 12:06:25;;;;;;;1.83;1.48;;;;;;;;;;5470605;26;20260;-50
2024/04/08 12:08:52;;;;;;;1.90;1.42;;;;;;;;;;5465836;26;20264;-49
2024/04/08 12:11:21;;;;;;;3.72;2.05;;;;;;;;;;5452649;26;20230;-50
2024/04/08 12:13:53;;;;;;;1.90;1.52;;;;;;;;;;5470796;26;20269;-50
2024/04/08 12:16:19;;;;;;;1.90;1.10;;;;;;;;;;5477907;26;20272;-49
2024/04/08 12:18:48;;;;;;;3.72;1.95;;;;;;;;;;5463702;26;20268;-52
2024/04/08 12:21:15;;;;;;;3.55;2.30;;;;;;;;;;5479119;26;20226;-50
2024/04/08 12:23:44;;;;;;;2.35;1.50;;;;;;;;;;5477607;26;20278;-54
2024/04/08 12:26:13;;;;;;;2.25;1.75;;;;;;;;;;5458189;26;20260;-51
2024/04/08 12:28:42;;;;;;;3.50;1.77;;;;;;;;;;5460942;26;20226;-54
2024/04/08 12:31:11;;;;;;;1.73;1.40;;;;;;;;;;5467733;26;20284;-49
2024/04/08 12:33:41;;;;;;;4.78;1.73;;;;;;;;;;5465045;26;20223;-51
2024/04/08 12:36:09;;;;;;;3.45;2.10;;;;;;;;;;5480814;26;20315;-50
2024/04/08 12:38:38;;;;;;;4.38;2.05;;;;;;;;;;5482936;26;20225;-49
2024/04/08 12:41:05;;;;;;;4.35;1.73;;;;;;;;;;5488738;26;20229;-52
2024/04/08 12:43:34;;;;;;;3.53;1.88;;;;;;;;;;5467411;26;20230;-51
2024/04/08 12:46:02;;;;;;;7.93;2.25;;;;;;;;;;5459208;26;20222;-53
2024/04/08 12:48:34;;;;;;;3.20;1.95;;;;;;;;;;5465711;26;20229;-52
2024/04/08 12:51:01;;;;;;;4.47;2.17;;;;;;;;;;5475685;26;20234;-51
2024/04/08 12:53:30;;;;;;;4.00;2.35;;;;;;;;;;5466664;26;20273;-50
2024/04/08 12:55:59;;;;;;;4.13;1.70;;;;;;;;;;5464147;26;20229;-53
2024/04/08 12:58:25;;;;;;;3.17;1.95;;;;;;;;;;5458379;26;20264;-50
2024/04/08 13:00:54;;;;;;;4.72;2.05;;;;;;;;;;5469078;26;20645;-52
2024/04/08 13:03:21;;;;;;;7.72;2.88;;;;;;;;;;5460044;26;20273;-50
2024/04/08 13:05:53;;;;;;;3.05;2.10;;;;;;;;;;5463387;26;20230;-50
2024/04/08 13:08:19;;;;;;;6.20;2.05;;;;;;;;;;5485772;26;20229;-50
2024/04/08 13:10:49;;;;;;;2.35;1.50;;;;;;;;;;5459564;26;20296;-50
2024/04/08 13:13:15;;;;;;;2.20;1.98;;;;;;;;;;5459654;26;20699;-51
2024/04/08 13:15:44;;;;;;;3.30;1.85;;;;;;;;;;5461553;26;20725;-49
2024/04/08 13:18:11;;;;;;;4.00;2.42;;;;;;;;;;5465784;26;20766;-53
2024/04/08 13:20:40;;;;;;;3.28;2.10;;;;;;;;;;5459515;26;20234;-51
2024/04/08 13:23:09;;;;;;;3.42;1.70;;;;;;;;;;5459608;26;20222;-49
2024/04/08 13:25:38;;;;;;;3.78;2.28;;;;;;;;;;5466558;26;20238;-49
2024/04/08 13:28:05;;;;;;;3.33;1.88;;;;;;;;;;5458895;26;20221;-51
2024/04/08 13:30:35;;;;;;;3.97;1.90;;;;;;;;;;5459937;26;20322;-49
2024/04/08 13:33:01;;;;;;;3.25;1.65;;;;;;;;;;5459211;26;20222;-51
2024/04/08 13:35:31;;;;;;;6.30;1.73;;;;;;;;;;5459465;26;20763;-51
2024/04/08 13:37:57;;;;;;;4.32;2.72;;;;;;;;;;5464623;26;20242;-55
2024/04/08 13:40:29;;;;;;;3.88;1.85;;;;;;;;;;5461803;26;20272;-53
2024/04/08 13:42:55;;;;;;;8.85;2.50;;;;;;;;;;5459246;26;20226;-52
2024/04/08 13:45:24;;;;;;;10.40;2.95;;;;;;;;;;5459357;26;20226;-50
2024/04/08 13:47:51;;;;;;;5.70;2.72;;;;;;;;;;5462881;26;20261;-50
2024/04/08 13:50:21;;;;;;;6.07;2.25;;;;;;;;;;5463292;26;20222;-51
2024/04/08 13:52:47;;;;;;;5.40;2.03;;;;;;;;;;5458886;26;20234;-50
2024/04/08 13:55:17;;;;;;;4.63;2.53;;;;;;;;;;5459114;26;20230;-51
2024/04/08 13:57:46;;;;;;;5.15;2.75;;;;;;;;;;5460698;26;20855;-50
2024/04/08 14:00:16;;;;;;;6.05;2.55;;;;;;;;;;5464199;26;20297;-49
2024/04/08 14:02:42;;;;;;;7.72;2.35;;;;;;;;;;5459042;26;20330;-52
2024/04/08 14:05:12;;;;;;;3.90;1.65;;;;;;;;;;5457971;26;20285;-51
2024/04/08 14:07:39;;;;;;;6.03;2.40;;;;;;;;;;5459180;26;20226;-50
2024/04/08 14:10:09;;;;;;;4.78;2.13;;;;;;;;;;5465314;26;20233;-50
2024/04/08 14:12:36;;;;;;;9.68;3.65;;;;;;;;;;5458710;26;20285;-48
2024/04/08 14:15:08;;;;;;;3.63;2.58;;;;;;;;;;5458706;26;20697;-50
2024/04/08 14:17:35;;;;;;;5.97;2.25;;;;;;;;;;5458857;26;20223;-48
2024/04/08 14:20:04;;;;;;;6.72;2.45;;;;;;;;;;5458729;26;20323;-50
2024/04/08 14:22:30;;;;;;;5.43;2.45;;;;;;;;;;5458483;26;20235;-50
2024/04/08 14:25:00;;;;;;;4.03;2.13;;;;;;;;;;5463300;26;20233;-50
2024/04/08 14:27:26;;;;;;;2.95;1.70;;;;;;;;;;5460556;26;20225;-53
2024/04/08 14:29:55;;;;;;;3.28;1.60;;;;;;;;;;5458478;26;20372;-50
2024/04/08 14:32:25;;;;;;;4.47;1.85;;;;;;;;;;5458117;26;20234;-49
2024/04/08 14:34:54;;;;;;;4.95;2.83;;;;;;;;;;5461857;26;20265;-51
2024/04/08 14:37:21;;;;;;;2.83;1.73;;;;;;;;;;5461492;26;20302;-51
2024/04/08 14:39:50;;;;;;;6.82;2.55;;;;;;;;;;5458363;26;20314;-48
2024/04/08 14:42:17;;;;;;;2.85;1.85;;;;;;;;;;5457908;26;20238;-49
2024/04/08 14:44:46;;;;;;;3.45;1.67;;;;;;;;;;5459272;26;20226;-52
2024/04/08 14:47:12;;;;;;;3.05;2.20;;;;;;;;;;5463416;26;20267;-52
2024/04/08 14:49:46;;;;;;;5.70;2.47;;;;;;;;;;5458022;26;20268;-48